sensor_id;sensor_type;location;lat;lon;timestamp;temperature;humidity
53675;DHT22;39574;50.534;8.500;2022-09-12T00:04:53;14.8;99.9
53675;DHT22;39574;50.534;8.500;2022-09-12T00:10:06;14.8;99.9
53675;DHT22;39574;50.534;8.500;2022-09-12T00:19:17;14.8;99.9
53675;DHT22;39574;50.534;8.500;2022-09-12T00:24:37;14.8;99.9
53675;DHT22;39574;50.534;8.500;2022-09-12T00:29:45;14.8;99.9
53675;DHT22;39574;50.534;8.500;2022-09-12T00:35:00;14.8;99.9
53675;DHT22;39574;50.534;8.500;2022-09-12T00:40:05;14.7;99.9
53675;DHT22;39574;50.534;8.500;2022-09-12T00:49:43;14.5;99.9
53675;DHT22;39574;50.534;8.500;2022-09-12T00:54:45;14.2;99.9
53675;DHT22;39574;50.534;8.500;2022-09-12T00:59:47;14.0;99.9
53675;DHT22;39574;50.534;8.500;2022-09-12T01:04:54;13.9;99.9
53675;DHT22;39574;50.534;8.500;2022-09-12T01:09:55;14.0;99.9
53675;DHT22;39574;50.534;8.500;2022-09-12T01:14:56;14.0;99.9
53675;DHT22;39574;50.534;8.500;2022-09-12T01:24:32;13.9;99.9
53675;DHT22;39574;50.534;8.500;2022-09-12T01:29:42;13.8;99.9
53675;DHT22;39574;50.534;8.500;2022-09-12T01:34:51;13.8;99.9
53675;DHT22;39574;50.534;8.500;2022-09-12T01:39:54;13.8;99.9
53675;DHT22;39574;50.534;8.500;2022-09-12T01:49:20;13.7;99.9
53675;DHT22;39574;50.534;8.500;2022-09-12T01:54:24;13.7;99.9
53675;DHT22;39574;50.534;8.500;2022-09-12T01:59:34;13.7;99.9
53675;DHT22;39574;50.534;8.500;2022-09-12T02:04:35;13.7;99.9
53675;DHT22;39574;50.534;8.500;2022-09-12T02:09:35;13.6;99.9
53675;DHT22;39574;50.534;8.500;2022-09-12T02:14:47;13.5;99.9
53675;DHT22;39574;50.534;8.500;2022-09-12T02:19:50;13.5;99.9
53675;DHT22;39574;50.534;8.500;2022-09-12T02:29:25;13.5;99.9
53675;DHT22;39574;50.534;8.500;2022-09-12T02:34:29;13.4;99.9
53675;DHT22;39574;50.534;8.500;2022-09-12T02:39:40;13.4;99.9
53675;DHT22;39574;50.534;8.500;2022-09-12T02:44:44;13.4;99.9
53675;DHT22;39574;50.534;8.500;2022-09-12T02:54:21;13.2;99.9
53675;DHT22;39574;50.534;8.500;2022-09-12T02:59:25;13.2;99.9
53675;DHT22;39574;50.534;8.500;2022-09-12T03:05:12;13.1;99.9
53675;DHT22;39574;50.534;8.500;2022-09-12T03:14:08;13.2;99.9
53675;DHT22;39574;50.534;8.500;2022-09-12T03:19:20;13.3;99.9
53675;DHT22;39574;50.534;8.500;2022-09-12T03:24:33;13.4;99.9
53675;DHT22;39574;50.534;8.500;2022-09-12T03:29:36;13.4;99.9
53675;DHT22;39574;50.534;8.500;2022-09-12T03:39:03;13.4;99.9
53675;DHT22;39574;50.534;8.500;2022-09-12T03:44:15;13.4;99.9
53675;DHT22;39574;50.534;8.500;2022-09-12T03:49:16;13.3;99.9
53675;DHT22;39574;50.534;8.500;2022-09-12T03:54:29;13.3;99.9
53675;DHT22;39574;50.534;8.500;2022-09-12T03:59:30;13.3;99.9
53675;DHT22;39574;50.534;8.500;2022-09-12T04:09:07;13.4;99.9
53675;DHT22;39574;50.534;8.500;2022-09-12T04:14:13;13.4;99.9
53675;DHT22;39574;50.534;8.500;2022-09-12T04:19:26;13.4;99.9
53675;DHT22;39574;50.534;8.500;2022-09-12T04:28:52;13.5;99.9
53675;DHT22;39574;50.534;8.500;2022-09-12T04:33:52;13.4;99.9
53675;DHT22;39574;50.534;8.500;2022-09-12T04:39:06;13.4;99.9
53675;DHT22;39574;50.534;8.500;2022-09-12T04:44:09;13.4;99.9
53675;DHT22;39574;50.534;8.500;2022-09-12T04:49:21;13.4;99.9
53675;DHT22;39574;50.534;8.500;2022-09-12T04:58:47;13.4;99.9
53675;DHT22;39574;50.534;8.500;2022-09-12T05:04:02;13.4;99.9
53675;DHT22;39574;50.534;8.500;2022-09-12T05:09:14;13.4;99.9
53675;DHT22;39574;50.534;8.500;2022-09-12T05:14:17;13.4;99.9
53675;DHT22;39574;50.534;8.500;2022-09-12T05:23:55;13.4;99.9
53675;DHT22;39574;50.534;8.500;2022-09-12T05:28:59;13.5;99.9
53675;DHT22;39574;50.534;8.500;2022-09-12T05:34:12;13.6;99.9
53675;DHT22;39574;50.534;8.500;2022-09-12T05:39:14;13.5;99.9
53675;DHT22;39574;50.534;8.500;2022-09-12T05:48:40;13.6;99.9
53675;DHT22;39574;50.534;8.500;2022-09-12T05:53:52;13.6;99.9
53675;DHT22;39574;50.534;8.500;2022-09-12T05:59:05;13.6;99.9
53675;DHT22;39574;50.534;8.500;2022-09-12T06:08:35;13.6;99.9
53675;DHT22;39574;50.534;8.500;2022-09-12T06:13:49;13.6;99.9
53675;DHT22;39574;50.534;8.500;2022-09-12T06:19:04;13.5;99.9
53675;DHT22;39574;50.534;8.500;2022-09-12T06:24:05;13.6;99.9
53675;DHT22;39574;50.534;8.500;2022-09-12T06:33:32;13.6;99.9
53675;DHT22;39574;50.534;8.500;2022-09-12T06:38:42;13.7;99.9
53675;DHT22;39574;50.534;8.500;2022-09-12T06:43:46;13.8;99.9
53675;DHT22;39574;50.534;8.500;2022-09-12T06:49:02;13.8;99.9
53675;DHT22;39574;50.534;8.500;2022-09-12T06:58:30;13.7;99.9
53675;DHT22;39574;50.534;8.500;2022-09-12T07:03:38;13.8;99.9
53675;DHT22;39574;50.534;8.500;2022-09-12T07:08:43;13.8;99.9
53675;DHT22;39574;50.534;8.500;2022-09-12T07:13:51;14.1;99.9
53675;DHT22;39574;50.534;8.500;2022-09-12T07:18:56;14.3;99.9
53675;DHT22;39574;50.534;8.500;2022-09-12T07:28:22;14.6;99.9
53675;DHT22;39574;50.534;8.500;2022-09-12T07:33:34;14.9;99.9
53675;DHT22;39574;50.534;8.500;2022-09-12T07:38:38;15.1;99.9
53675;DHT22;39574;50.534;8.500;2022-09-12T07:43:50;15.2;99.9
53675;DHT22;39574;50.534;8.500;2022-09-12T07:53:18;15.6;99.9
53675;DHT22;39574;50.534;8.500;2022-09-12T07:58:34;16.0;99.9
53675;DHT22;39574;50.534;8.500;2022-09-12T08:03:43;16.3;99.9
53675;DHT22;39574;50.534;8.500;2022-09-12T08:08:44;16.6;99.9
53675;DHT22;39574;50.534;8.500;2022-09-12T08:18:15;16.7;99.9
53675;DHT22;39574;50.534;8.500;2022-09-12T08:23:25;16.8;99.9
53675;DHT22;39574;50.534;8.500;2022-09-12T08:28:29;17.1;99.9
53675;DHT22;39574;50.534;8.500;2022-09-12T08:33:43;17.3;99.9
53675;DHT22;39574;50.534;8.500;2022-09-12T08:38:45;17.5;99.9
53675;DHT22;39574;50.534;8.500;2022-09-12T08:48:10;18.0;99.9
53675;DHT22;39574;50.534;8.500;2022-09-12T08:53:22;18.3;99.9
53675;DHT22;39574;50.534;8.500;2022-09-12T08:58:27;18.5;99.9
53675;DHT22;39574;50.534;8.500;2022-09-12T09:03:43;18.8;99.9
53675;DHT22;39574;50.534;8.500;2022-09-12T09:13:08;19.4;99.9
53675;DHT22;39574;50.534;8.500;2022-09-12T09:18:17;19.8;99.9
53675;DHT22;39574;50.534;8.500;2022-09-12T09:23:19;20.1;99.9
53675;DHT22;39574;50.534;8.500;2022-09-12T09:28:24;20.4;99.9
53675;DHT22;39574;50.534;8.500;2022-09-12T09:33:34;20.5;99.9
53675;DHT22;39574;50.534;8.500;2022-09-12T09:43:05;20.8;99.9
53675;DHT22;39574;50.534;8.500;2022-09-12T09:48:16;21.1;99.9
53675;DHT22;39574;50.534;8.500;2022-09-12T09:53:21;21.5;99.9
53675;DHT22;39574;50.534;8.500;2022-09-12T09:58:29;22.1;99.9
53675;DHT22;39574;50.534;8.500;2022-09-12T10:03:33;22.6;99.9
53675;DHT22;39574;50.534;8.500;2022-09-12T10:13:05;23.1;99.9
53675;DHT22;39574;50.534;8.500;2022-09-12T10:18:13;23.5;99.9
53675;DHT22;39574;50.534;8.500;2022-09-12T10:23:26;23.7;99.9
53675;DHT22;39574;50.534;8.500;2022-09-12T10:28:31;23.8;99.9
53675;DHT22;39574;50.534;8.500;2022-09-12T10:37:56;23.8;99.9
53675;DHT22;39574;50.534;8.500;2022-09-12T10:43:15;23.8;99.9
53675;DHT22;39574;50.534;8.500;2022-09-12T10:48:23;23.9;99.9
53675;DHT22;39574;50.534;8.500;2022-09-12T10:53:27;24.0;99.9
53675;DHT22;39574;50.534;8.500;2022-09-12T11:02:44;24.1;99.9
53675;DHT22;39574;50.534;8.500;2022-09-12T11:07:57;24.1;99.9
53675;DHT22;39574;50.534;8.500;2022-09-12T11:13:00;24.2;99.9
53675;DHT22;39574;50.534;8.500;2022-09-12T11:18:13;24.5;99.9
53675;DHT22;39574;50.534;8.500;2022-09-12T11:23:22;24.7;99.9
53675;DHT22;39574;50.534;8.500;2022-09-12T11:28:30;25.1;99.9
53675;DHT22;39574;50.534;8.500;2022-09-12T11:38:07;25.6;99.9
53675;DHT22;39574;50.534;8.500;2022-09-12T11:42:59;25.7;99.9
53675;DHT22;39574;50.534;8.500;2022-09-12T11:47:59;25.7;99.9
53675;DHT22;39574;50.534;8.500;2022-09-12T11:53:14;25.4;99.9
53675;DHT22;39574;50.534;8.500;2022-09-12T11:58:25;25.2;99.9
53675;DHT22;39574;50.534;8.500;2022-09-12T12:07:56;26.0;99.9
53675;DHT22;39574;50.534;8.500;2022-09-12T12:12:56;26.0;99.9
53675;DHT22;39574;50.534;8.500;2022-09-12T12:18:06;26.2;99.9
53675;DHT22;39574;50.534;8.500;2022-09-12T12:23:20;26.7;99.9
53675;DHT22;39574;50.534;8.500;2022-09-12T12:38:26;27.6;99.9
53675;DHT22;39574;50.534;8.500;2022-09-12T12:47:38;27.7;99.9
53675;DHT22;39574;50.534;8.500;2022-09-12T12:52:54;27.2;99.9
53675;DHT22;39574;50.534;8.500;2022-09-12T12:57:54;26.7;99.9
53675;DHT22;39574;50.534;8.500;2022-09-12T13:03:08;26.3;99.9
53675;DHT22;39574;50.534;8.500;2022-09-12T13:08:25;26.4;99.9
53675;DHT22;39574;50.534;8.500;2022-09-12T13:13:24;26.9;99.9
53675;DHT22;39574;50.534;8.500;2022-09-12T13:23:24;26.5;99.9
53675;DHT22;39574;50.534;8.500;2022-09-12T13:33:07;25.8;99.9
53675;DHT22;39574;50.534;8.500;2022-09-12T13:38:05;25.5;99.9
53675;DHT22;39574;50.534;8.500;2022-09-12T13:43:12;25.8;99.9
53675;DHT22;39574;50.534;8.500;2022-09-12T13:48:12;26.6;99.9
53675;DHT22;39574;50.534;8.500;2022-09-12T13:53:17;27.5;99.9
53675;DHT22;39574;50.534;8.500;2022-09-12T13:58:20;28.1;99.9
53675;DHT22;39574;50.534;8.500;2022-09-12T14:03:25;28.2;99.9
53675;DHT22;39574;50.534;8.500;2022-09-12T14:13:03;27.8;99.9
53675;DHT22;39574;50.534;8.500;2022-09-12T14:18:05;27.8;99.9
53675;DHT22;39574;50.534;8.500;2022-09-12T14:23:19;27.9;99.9
53675;DHT22;39574;50.534;8.500;2022-09-12T14:28:18;28.0;99.7
53675;DHT22;39574;50.534;8.500;2022-09-12T14:37:32;28.3;99.7
53675;DHT22;39574;50.534;8.500;2022-09-12T14:42:50;28.4;98.8
53675;DHT22;39574;50.534;8.500;2022-09-12T14:48:03;28.4;98.7
53675;DHT22;39574;50.534;8.500;2022-09-12T14:53:19;27.8;98.7
53675;DHT22;39574;50.534;8.500;2022-09-12T14:58:22;27.4;99.0
53675;DHT22;39574;50.534;8.500;2022-09-12T15:03:23;27.3;99.3
53675;DHT22;39574;50.534;8.500;2022-09-12T15:12:49;27.1;99.5
53675;DHT22;39574;50.534;8.500;2022-09-12T15:17:52;27.2;99.7
53675;DHT22;39574;50.534;8.500;2022-09-12T15:23:03;27.4;99.7
53675;DHT22;39574;50.534;8.500;2022-09-12T15:28:05;27.4;99.4
53675;DHT22;39574;50.534;8.500;2022-09-12T15:33:16;27.4;99.2
53675;DHT22;39574;50.534;8.500;2022-09-12T15:38:22;27.3;99.3
53675;DHT22;39574;50.534;8.500;2022-09-12T15:47:31;27.3;99.3
53675;DHT22;39574;50.534;8.500;2022-09-12T15:53:05;27.2;99.5
53675;DHT22;39574;50.534;8.500;2022-09-12T16:08:31;26.1;99.9
53675;DHT22;39574;50.534;8.500;2022-09-12T16:17:49;25.9;99.9
53675;DHT22;39574;50.534;8.500;2022-09-12T16:23:03;25.8;99.9
53675;DHT22;39574;50.534;8.500;2022-09-12T16:28:03;25.8;99.9
53675;DHT22;39574;50.534;8.500;2022-09-12T16:33:18;25.8;99.9
53675;DHT22;39574;50.534;8.500;2022-09-12T16:42:27;25.7;99.9
53675;DHT22;39574;50.534;8.500;2022-09-12T16:47:48;25.6;99.9
53675;DHT22;39574;50.534;8.500;2022-09-12T16:52:48;25.5;99.9
53675;DHT22;39574;50.534;8.500;2022-09-12T16:58:03;25.2;99.9
53675;DHT22;39574;50.534;8.500;2022-09-12T17:03:03;24.9;99.9
53675;DHT22;39574;50.534;8.500;2022-09-12T17:08:13;24.6;99.9
53675;DHT22;39574;50.534;8.500;2022-09-12T17:17:26;24.2;99.9
53675;DHT22;39574;50.534;8.500;2022-09-12T17:22:45;24.0;99.9
53675;DHT22;39574;50.534;8.500;2022-09-12T17:27:57;23.9;99.9
53675;DHT22;39574;50.534;8.500;2022-09-12T17:32:59;23.7;99.9
53675;DHT22;39574;50.534;8.500;2022-09-12T17:38:03;23.5;99.9
53675;DHT22;39574;50.534;8.500;2022-09-12T17:43:14;23.1;99.9
53675;DHT22;39574;50.534;8.500;2022-09-12T17:52:54;22.4;99.9
53675;DHT22;39574;50.534;8.500;2022-09-12T17:57:57;21.9;99.9
53675;DHT22;39574;50.534;8.500;2022-09-12T18:02:59;21.5;99.9
53675;DHT22;39574;50.534;8.500;2022-09-12T18:08:12;21.1;99.9
53675;DHT22;39574;50.534;8.500;2022-09-12T18:13:13;20.9;99.9
53675;DHT22;39574;50.534;8.500;2022-09-12T18:22:26;20.7;99.9
53675;DHT22;39574;50.534;8.500;2022-09-12T18:27:51;20.5;99.9
53675;DHT22;39574;50.534;8.500;2022-09-12T18:32:56;20.3;99.9
53675;DHT22;39574;50.534;8.500;2022-09-12T18:38:11;20.2;99.9
53675;DHT22;39574;50.534;8.500;2022-09-12T18:47:30;20.0;99.9
53675;DHT22;39574;50.534;8.500;2022-09-12T18:52:45;19.8;99.9
53675;DHT22;39574;50.534;8.500;2022-09-12T18:57:49;19.5;99.9
53675;DHT22;39574;50.534;8.500;2022-09-12T19:02:54;19.3;99.9
53675;DHT22;39574;50.534;8.500;2022-09-12T19:08:07;19.1;99.9
53675;DHT22;39574;50.534;8.500;2022-09-12T19:17:27;18.8;99.9
53675;DHT22;39574;50.534;8.500;2022-09-12T19:22:33;18.6;99.9
53675;DHT22;39574;50.534;8.500;2022-09-12T19:27:41;18.4;99.9
53675;DHT22;39574;50.534;8.500;2022-09-12T19:32:47;18.3;99.9
53675;DHT22;39574;50.534;8.500;2022-09-12T19:37:48;18.1;99.9
53675;DHT22;39574;50.534;8.500;2022-09-12T19:47:15;18.1;99.9
53675;DHT22;39574;50.534;8.500;2022-09-12T19:52:26;18.0;99.9
53675;DHT22;39574;50.534;8.500;2022-09-12T19:57:31;17.9;99.9
53675;DHT22;39574;50.534;8.500;2022-09-12T20:02:42;17.8;99.9
53675;DHT22;39574;50.534;8.500;2022-09-12T20:07:45;17.6;99.9
53675;DHT22;39574;50.534;8.500;2022-09-12T20:12:58;17.6;99.9
53675;DHT22;39574;50.534;8.500;2022-09-12T20:17:59;17.6;99.9
53675;DHT22;39574;50.534;8.500;2022-09-12T20:27:39;17.7;99.9
53675;DHT22;39574;50.534;8.500;2022-09-12T20:32:42;17.7;99.9
53675;DHT22;39574;50.534;8.500;2022-09-12T20:37:53;17.6;99.9
53675;DHT22;39574;50.534;8.500;2022-09-12T20:42:54;17.6;99.9
53675;DHT22;39574;50.534;8.500;2022-09-12T20:52:06;17.5;99.9
53675;DHT22;39574;50.534;8.500;2022-09-12T20:57:09;17.5;99.9
53675;DHT22;39574;50.534;8.500;2022-09-12T21:02:23;17.4;99.9
53675;DHT22;39574;50.534;8.500;2022-09-12T21:07:34;17.3;99.9
53675;DHT22;39574;50.534;8.500;2022-09-12T21:12:50;17.2;99.9
53675;DHT22;39574;50.534;8.500;2022-09-12T21:22:32;17.3;99.9
53675;DHT22;39574;50.534;8.500;2022-09-12T21:27:34;17.2;99.9
53675;DHT22;39574;50.534;8.500;2022-09-12T21:32:34;17.1;99.9
53675;DHT22;39574;50.534;8.500;2022-09-12T21:37:49;17.0;99.9
53675;DHT22;39574;50.534;8.500;2022-09-12T21:42:51;16.8;99.9
53675;DHT22;39574;50.534;8.500;2022-09-12T21:52:17;16.8;99.9
53675;DHT22;39574;50.534;8.500;2022-09-12T21:57:27;16.7;99.9
53675;DHT22;39574;50.534;8.500;2022-09-12T22:02:42;16.8;99.9
53675;DHT22;39574;50.534;8.500;2022-09-12T22:07:45;16.9;99.9
53675;DHT22;39574;50.534;8.500;2022-09-12T22:17:13;16.9;99.9
53675;DHT22;39574;50.534;8.500;2022-09-12T22:22:26;16.8;99.9
53675;DHT22;39574;50.534;8.500;2022-09-12T22:27:39;16.7;99.9
53675;DHT22;39574;50.534;8.500;2022-09-12T22:37:22;16.5;99.9
53675;DHT22;39574;50.534;8.500;2022-09-12T22:42:27;16.3;99.9
53675;DHT22;39574;50.534;8.500;2022-09-12T22:47:38;16.2;99.9
53675;DHT22;39574;50.534;8.500;2022-09-12T22:52:39;16.2;99.9
53675;DHT22;39574;50.534;8.500;2022-09-12T22:57:43;16.2;99.9
53675;DHT22;39574;50.534;8.500;2022-09-12T23:07:06;16.1;99.9
53675;DHT22;39574;50.534;8.500;2022-09-12T23:12:19;16.0;99.9
53675;DHT22;39574;50.534;8.500;2022-09-12T23:17:20;15.9;99.9
53675;DHT22;39574;50.534;8.500;2022-09-12T23:22:34;15.8;99.9
53675;DHT22;39574;50.534;8.500;2022-09-12T23:32:03;15.7;99.9
53675;DHT22;39574;50.534;8.500;2022-09-12T23:37:03;15.8;99.9
53675;DHT22;39574;50.534;8.500;2022-09-12T23:42:04;15.7;99.9
53675;DHT22;39574;50.534;8.500;2022-09-12T23:47:15;15.7;99.9
53675;DHT22;39574;50.534;8.500;2022-09-12T23:52:18;15.8;99.9
53675;DHT22;39574;50.534;8.500;2022-09-12T23:57:26;15.9;99.9
